Aviation Digital Data Service (ADDS)

Output produced by METARs form (1415 UTC 25 January 2015)
found at http://www.aviationweather.gov/adds/metars/
 
KUNV 251353Z 27009KT 6SM HZ BKN022 OVC055 01/M01 A2974
KUNV 251253Z COR 26009KT 6SM HZ OVC018 01/M01 A2973
KUNV 251153Z 29010G18KT 5SM HZ OVC014 01/M01 A2970
KUNV 251053Z 27013KT 5SM HZ OVC012 M01/M01 A2967
KUNV 251035Z AUTO 26009G16KT 10SM OVC014 01/M01 A2966 RMK AO2 T00071011
KUNV 251015Z AUTO 27011G18KT 10SM BKN016 OVC022 01/M01 A2966 RMK AO2 T00081012
KUNV 250955Z AUTO 28012G18KT 10SM OVC016 01/M01 A2965 RMK AO2 T00071013
KUNV 250935Z AUTO 27013KT 10SM OVC014 01/M01 A2965 RMK AO2 T00051012
KUNV 250915Z AUTO 25015G19KT 5SM BR OVC014 01/M01 A2965 RMK AO2 T00051011
KUNV 250855Z AUTO 26013KT 5SM BR OVC014 01/M01 A2965 RMK AO2 T00051013
KUNV 250835Z AUTO 25014G19KT 10SM OVC014 00/M01 A2964 RMK AO2 T00031015
KUNV 250815Z AUTO 25013G18KT 10SM OVC014 00/M02 A2963 RMK AO2 T00021016
KUNV 250755Z AUTO 26014KT 10SM OVC014 00/M02 A2962 RMK AO2 T00021017
KUNV 250735Z AUTO 26008G18KT 10SM OVC012 00/M02 A2962 RMK AO2 T00011018
KUNV 250715Z AUTO 26010KT 10SM OVC012 00/M02 A2962 RMK AO2 T00001019
KUNV 250655Z AUTO 26011G18KT 10SM OVC014 00/M02 A2961 RMK AO2 T00001020
KUNV 250635Z AUTO 27012G19KT 10SM OVC016 00/M02 A2961 RMK AO2 T00001023
KUNV 250615Z AUTO 26012G21KT 10SM OVC018 00/M02 A2959 RMK AO2 T00001025
KUNV 250555Z AUTO 26018G22KT 10SM BKN018 OVC023 00/M03 A2959 RMK AO2 T10021027 11001 21020
KUNV 250535Z AUTO 27014G19KT 10SM BKN018 OVC025 00/M03 A2959 RMK AO2 T10031028
KUNV 250515Z AUTO 27013G20KT 10SM BKN016 OVC022 00/M03 A2959 RMK AO2 T10051028
KUNV 250455Z AUTO 27013G21KT 10SM BKN016 OVC021 M01/M03 A2959 RMK AO2 T10061030
KUNV 250435Z AUTO 27017G22KT 10SM OVC014 M01/M03 A2959 RMK AO2 T10061030
KUNV 250415Z AUTO 27012G20KT 10SM OVC014 M01/M03 A2959 RMK AO2 T10071030
KUNV 250355Z AUTO 26012KT 10SM OVC014 M01/M03 A2959 RMK AO2 T10071033 400251021
KUNV 250335Z AUTO 27015G20KT 10SM OVC018 M01/M03 A2958 RMK AO2 T10071035
KUNV 250315Z AUTO 27017G22KT 10SM OVC018 M01/M04 A2957 RMK AO2 T10101037
KUNV 250255Z AUTO 27014G21KT 10SM OVC018 M01/M04 A2957 RMK AO2 T10111037
KUNV 250153Z 28009KT 7SM OVC014 M02/M04 A2956
KUNV 250053Z 28015G23KT 10SM OVC016 M02/M05 A2957
KUNV 242353Z 29012G18KT 10SM OVC018 M02/M05 A2955
KUNV 242253Z 28012G20KT 10SM OVC022 M01/M05 A2953
KUNV 242153Z 28013G20KT 10SM OVC028 M01/M06 A2949
KUNV 242053Z 28013G20KT 10SM BKN042 00/M06 A2947
KUNV 241953Z 29015KT 10SM FEW050 01/M06 A2945
KUNV 241853Z 27010G15KT 8SM FEW030 01/M04 A2944
KUNV 241753Z 25006KT 8SM SCT025 02/M03 A2946
KUNV 241653Z 00000KT 3SM BR BKN015 00/M02 A2950
KUNV 241553Z 00000KT 2SM BR BKN015 OVC022 M01/M02 A2953
KUNV 241453Z 00000KT 2SM BR OVC011 M02/M02 A2956
KUNV 241353Z 00000KT 2SM -SN OVC011 M02/M02 A2958
KUNV 241253Z 00000KT 2SM -SN BKN005 OVC011 M02/M02 A2960
KUNV 241153Z 00000KT 2SM -SN BKN005 OVC029 M02/M03 A2960
KUNV 241035Z AUTO 00000KT 2 1/2SM -SN SCT017 SCT025 OVC060 M02/M02 A2962 RMK AO2 T10201025
KUNV 241015Z AUTO 00000KT 1 3/4SM -SN SCT007 BKN017 OVC024 M02/M02 A2964 RMK AO2 T10201025
KUNV 240955Z AUTO 00000KT 2SM -SN SCT005 SCT008 OVC022 M02/M02 A2964 RMK AO2 T10191025
KUNV 240935Z AUTO 00000KT 1 1/2SM -SN SCT003 OVC008 M02/M02 A2966 RMK AO2 T10171022
KUNV 240915Z AUTO 00000KT 1 1/2SM -SN SCT002 OVC008 M02/M02 A2966 RMK AO2 T10181022
KUNV 240855Z AUTO 00000KT 1 1/4SM -SN OVC006 M02/M02 A2968 RMK AO2 T10171021
KUNV 240835Z AUTO 00000KT 1SM SN OVC006 M02/M02 A2969 RMK AO2 T10181022
KUNV 240815Z AUTO 00000KT 3/4SM -SN OVC004 M01/M02 A2971 RMK AO2 T10131016
KUNV 240755Z AUTO 00000KT 3/4SM SN OVC004 M01/M02 A2971 RMK AO2 T10151020
KUNV 240735Z AUTO 00000KT 1SM SN OVC006 M01/M02 A2974 RMK AO2 T10131017
KUNV 240715Z AUTO 00000KT 1SM SN OVC006 M01/M02 A2976 RMK AO2 T10141017
KUNV 240655Z AUTO 00000KT 1SM -SN OVC006 M01/M02 A2976 RMK AO2 T10151020
KUNV 240635Z AUTO 00000KT 1 1/2SM -SN BKN008 OVC011 M01/M02 A2978 RMK AO2 T10131017
KUNV 240615Z AUTO 00000KT 1 1/4SM -SN OVC008 M01/M02 A2978 RMK AO2 T10131017
KUNV 240555Z AUTO 00000KT 1 1/4SM -SN OVC006 M01/M02 A2978 RMK AO2 T10141017 10000 21016
KUNV 240535Z AUTO 00000KT 1SM -SN OVC006 M01/M02 A2980 RMK AO2 T10151018
KUNV 240515Z AUTO 00000KT 1SM -SN OVC004 M01/M02 A2981 RMK AO2 T10151019
KUNV 240455Z AUTO 00000KT 3/4SM SN OVC004 M01/M02 A2983 RMK AO2 T10151020
KUNV 240435Z AUTO 00000KT 3/4SM SN OVC004 M02/M02 A2985 RMK AO2 T10161023
KUNV 240415Z AUTO 00000KT 1 1/4SM SN OVC008 M01/M02 A2987 RMK AO2 T10131024
KUNV 240355Z AUTO 00000KT 2SM -SN BKN008 BKN015 OVC023 00/M03 A2988 RMK AO2 T10051030 400111030
KUNV 240335Z AUTO 00000KT 10SM SCT029 BKN037 OVC046 M01/M04 A2989 RMK AO2 T10061036
KUNV 240315Z AUTO 00000KT 10SM OVC050 00/M04 A2990 RMK AO2 T00001037
KUNV 240255Z AUTO 00000KT 10SM OVC055 00/M04 A2991 RMK AO2 T10051038